^^
Datos históricos de la estación: Murcia-Puente Tocinos
Diario Informe para Mayo 5, 2019 Unidades:  Ambas    Ingés   Métrico
Diario Semanal Mensual Anual
  Máxima: Mínima: Promedio:
Temperatura: 84 °F /  28.9 °C 64.2 °F /  17.9 °C 73.2 °F /  22.9 °C
Punto de rocio: 63.3 °F /  17.4 °C 50.4 °F /  10.2 °C 56.3 °F /  13.5 °C
Humedad: 77% 36.1% 57%
Velocidad viento: 11.4mph /  18.4km/h - 5mph /  8km/h
Racha viento: 20mph /  32.2km/h - -
Viento- - SE
Presión: 30 in /  1015.1 hPa 29.9 in /  1012.4 hPa -
Precipitación: 0 in /  0.0 mm    
 
 
Tabla de datos para Mayo 5, 2019
Hora Temperatura Punto de rocio Presión Viento Velocidad viento Racha viento Humedad Intensidad lluvia(por hora) Nubes
00:04 72.1 °F /  22.3 °C 53.4 °F /  11.9 °C 29.9in /  1013.6hPa Sur 3.6mph /  5.8km/h 6mph /  9.7km/h 51.7% 0in /  0.0mm
00:09 72.1 °F /  22.3 °C 53.8 °F /  12.1 °C 29.9in /  1013.5hPa Sur 3.5mph /  5.7km/h 5.2mph /  8.4km/h 52.5% 0in /  0.0mm
00:14 72.1 °F /  22.3 °C 54.5 °F /  12.5 °C 29.9in /  1013.5hPa SSO 3.1mph /  5km/h 6mph /  9.7km/h 53.7% 0in /  0.0mm
00:19 72.1 °F /  22.3 °C 55 °F /  12.8 °C 29.9in /  1013.5hPa SO 3.2mph /  5.1km/h 6mph /  9.7km/h 55% 0in /  0.0mm
00:24 72.1 °F /  22.3 °C 55.6 °F /  13.1 °C 29.9in /  1013.4hPa OSO 3.6mph /  5.8km/h 5.9mph /  9.5km/h 55.9% 0in /  0.0mm
00:29 72.1 °F /  22.3 °C 55.9 °F /  13.3 °C 29.9in /  1013.4hPa OSO 3.5mph /  5.7km/h 6mph /  9.7km/h 56.7% 0in /  0.0mm
00:34 72 °F /  22.2 °C 55.6 °F /  13.1 °C 29.9in /  1013.4hPa OSO 2.9mph /  4.7km/h 6mph /  9.7km/h 56.4% 0in /  0.0mm
00:39 72 °F /  22.2 °C 55.2 °F /  12.9 °C 29.9in /  1013.4hPa OSO 2.8mph /  4.5km/h 5mph /  8km/h 56% 0in /  0.0mm
00:44 71.6 °F /  22 °C 55 °F /  12.8 °C 29.9in /  1013.4hPa OSO 2mph /  3.2km/h 4.6mph /  7.4km/h 56% 0in /  0.0mm
00:49 71.4 °F /  21.9 °C 55 °F /  12.8 °C 29.9in /  1013.4hPa SO 2mph /  3.2km/h 5mph /  8km/h 56.1% 0in /  0.0mm
00:54 71.2 °F /  21.8 °C 55.2 °F /  12.9 °C 29.9in /  1013.4hPa SSO 2mph /  3.2km/h 4.6mph /  7.4km/h 57% 0in /  0.0mm
00:59 71.2 °F /  21.8 °C 55.6 °F /  13.1 °C 29.9in /  1013.4hPa SSE 2.2mph /  3.5km/h 5.9mph /  9.5km/h 58% 0in /  0.0mm
01:04 71.1 °F /  21.7 °C 56.7 °F /  13.7 °C 29.9in /  1013.4hPa SSE 2.9mph /  4.7km/h 6.2mph /  10km/h 60.2% 0in /  0.0mm
01:09 70.9 °F /  21.6 °C 57.4 °F /  14.1 °C 29.9in /  1013.3hPa Sur 3mph /  4.9km/h 6.4mph /  10.3km/h 62.4% 0in /  0.0mm
01:14 70.5 °F /  21.4 °C 57.9 °F /  14.4 °C 29.9in /  1013.2hPa Sur 4.3mph /  6.9km/h 7mph /  11.3km/h 64% 0in /  0.0mm
01:19 70.3 °F /  21.3 °C 57.6 °F /  14.2 °C 29.9in /  1013.2hPa Sur 4.3mph /  6.9km/h 6mph /  9.7km/h 63.8% 0in /  0.0mm
01:24 70.3 °F /  21.3 °C 57.4 °F /  14.1 °C 29.9in /  1013.1hPa SO 4mph /  6.5km/h 6mph /  9.7km/h 63.6% 0in /  0.0mm
01:29 70.3 °F /  21.3 °C 57.2 °F /  14 °C 29.9in /  1013.0hPa Sur 3.9mph /  6.2km/h 5mph /  8km/h 63.1% 0in /  0.0mm
01:34 70.2 °F /  21.2 °C 55.9 °F /  13.3 °C 29.9in /  1013.0hPa SE 2.9mph /  4.7km/h 5mph /  8km/h 61% 0in /  0.0mm
01:39 69.8 °F /  21 °C 55.6 °F /  13.1 °C 29.9in /  1012.9hPa SSE 2.9mph /  4.6km/h 5mph /  8km/h 61% 0in /  0.0mm
01:44 69.4 °F /  20.8 °C 55.6 °F /  13.1 °C 29.9in /  1012.9hPa SE 2.4mph /  3.9km/h 5mph /  8km/h 61.5% 0in /  0.0mm
01:49 69.3 °F /  20.7 °C 55.8 °F /  13.2 °C 29.9in /  1012.9hPa SSE 2.4mph /  3.9km/h 5mph /  8km/h 62% 0in /  0.0mm
01:54 69.1 °F /  20.6 °C 55.8 °F /  13.2 °C 29.9in /  1012.8hPa SSE 2.4mph /  3.9km/h 5mph /  8km/h 62.4% 0in /  0.0mm
01:59 69.1 °F /  20.6 °C 55.9 °F /  13.3 °C 29.9in /  1012.8hPa SSE 2.3mph /  3.7km/h 4mph /  6.4km/h 63% 0in /  0.0mm
02:04 69.1 °F /  20.6 °C 55.9 °F /  13.3 °C 29.9in /  1013.0hPa OSO 2mph /  3.2km/h 4.6mph /  7.4km/h 63% 0in /  0.0mm
02:09 69.1 °F /  20.6 °C 56.1 °F /  13.4 °C 29.9in /  1013.0hPa NO 2mph /  3.2km/h 5mph /  8km/h 63.7% 0in /  0.0mm
02:14 68.7 °F /  20.4 °C 56.7 °F /  13.7 °C 29.9in /  1013.0hPa ONO 2mph /  3.2km/h 4mph /  6.4km/h 65.4% 0in /  0.0mm
02:19 68.7 °F /  20.4 °C 57.7 °F /  14.3 °C 29.9in /  1013.1hPa OSO 2.1mph /  3.3km/h 5.2mph /  8.4km/h 68.2% 0in /  0.0mm
02:24 68.5 °F /  20.3 °C 58.3 °F /  14.6 °C 29.9in /  1013.1hPa SO 2.4mph /  3.9km/h 5mph /  8km/h 69.7% 0in /  0.0mm
02:29 68.5 °F /  20.3 °C 58.5 °F /  14.7 °C 29.9in /  1013.1hPa SO 2.4mph /  3.9km/h 5mph /  8km/h 70% 0in /  0.0mm
02:34 68.5 °F /  20.3 °C 58.3 °F /  14.6 °C 29.9in /  1013.1hPa SSO 2.9mph /  4.7km/h 5mph /  8km/h 70% 0in /  0.0mm
02:39 68.4 °F /  20.2 °C 57.9 °F /  14.4 °C 29.9in /  1013.1hPa SSO 2.9mph /  4.7km/h 5.2mph /  8.4km/h 69.3% 0in /  0.0mm
02:44 68.5 °F /  20.3 °C 57.7 °F /  14.3 °C 29.9in /  1013.1hPa SSE 2.9mph /  4.7km/h 6.2mph /  10km/h 68.4% 0in /  0.0mm
02:49 68.5 °F /  20.3 °C 57.6 °F /  14.2 °C 29.9in /  1013.2hPa SSE 3mph /  4.8km/h 6mph /  9.7km/h 68% 0in /  0.0mm
02:54 68.4 °F /  20.2 °C 57.7 °F /  14.3 °C 29.9in /  1013.2hPa SSE 3.6mph /  5.8km/h 6mph /  9.7km/h 68.9% 0in /  0.0mm
02:59 68 °F /  20 °C 57.7 °F /  14.3 °C 29.9in /  1013.2hPa Sur 3.6mph /  5.8km/h 9.2mph /  14.8km/h 69.8% 0in /  0.0mm
03:04 67.6 °F /  19.8 °C 57.9 °F /  14.4 °C 29.9in /  1013.4hPa Sur 3.6mph /  5.8km/h 9mph /  14.5km/h 71.2% 0in /  0.0mm
03:09 67.6 °F /  19.8 °C 58.1 °F /  14.5 °C 29.9in /  1013.4hPa Sur 3.7mph /  6km/h 7.4mph /  11.9km/h 71.3% 0in /  0.0mm
03:14 67.6 °F /  19.8 °C 57.9 °F /  14.4 °C 29.9in /  1013.4hPa Sur 4.7mph /  7.6km/h 8.5mph /  13.7km/h 70.9% 0in /  0.0mm
03:19 67.6 °F /  19.8 °C 57.4 °F /  14.1 °C 29.9in /  1013.4hPa Sur 4.8mph /  7.7km/h 9mph /  14.5km/h 70% 0in /  0.0mm
03:24 67.5 °F /  19.7 °C 57.2 °F /  14 °C 29.9in /  1013.2hPa Sur 5.4mph /  8.7km/h 9.2mph /  14.8km/h 69.6% 0in /  0.0mm
03:29 67.3 °F /  19.6 °C 56.7 °F /  13.7 °C 29.9in /  1013.2hPa Sur 5.5mph /  8.8km/h 10.4mph /  16.7km/h 68.5% 0in /  0.0mm
03:34 67.3 °F /  19.6 °C 56.3 °F /  13.5 °C 29.9in /  1013.2hPa SSO 6.2mph /  10km/h 10mph /  16.1km/h 67.8% 0in /  0.0mm
03:39 67.3 °F /  19.6 °C 55.8 °F /  13.2 °C 29.9in /  1013.1hPa SSO 6.1mph /  9.8km/h 8.5mph /  13.7km/h 66.7% 0in /  0.0mm
03:44 67.5 °F /  19.7 °C 55.6 °F /  13.1 °C 29.9in /  1013.1hPa SSO 5.4mph /  8.7km/h 9.2mph /  14.8km/h 65.6% 0in /  0.0mm
03:49 67.6 °F /  19.8 °C 55.2 °F /  12.9 °C 29.9in /  1013.1hPa SO 5.4mph /  8.7km/h 9mph /  14.5km/h 64.7% 0in /  0.0mm
03:54 67.6 °F /  19.8 °C 55 °F /  12.8 °C 29.9in /  1013.0hPa SO 5.2mph /  8.4km/h 8mph /  12.9km/h 64% 0in /  0.0mm
03:59 67.6 °F /  19.8 °C 54.9 °F /  12.7 °C 29.9in /  1013.0hPa SO 5mph /  8.1km/h 6.2mph /  10km/h 63.8% 0in /  0.0mm
04:04 67.5 °F /  19.7 °C 54.5 °F /  12.5 °C 29.9in /  1013.0hPa SSO 4.3mph /  6.9km/h 6mph /  9.7km/h 63% 0in /  0.0mm
04:09 67.5 °F /  19.7 °C 54.3 °F /  12.4 °C 29.9in /  1012.9hPa SSO 4.3mph /  7km/h 8.5mph /  13.7km/h 63% 0in /  0.0mm
04:14 67.5 °F /  19.7 °C 54.1 °F /  12.3 °C 29.9in /  1012.9hPa SSO 4.7mph /  7.6km/h 9mph /  14.5km/h 62.3% 0in /  0.0mm
04:19 67.5 °F /  19.7 °C 54.1 °F /  12.3 °C 29.9in /  1012.9hPa OSO 4.6mph /  7.4km/h 7mph /  11.3km/h 62.4% 0in /  0.0mm
04:24 67.5 °F /  19.7 °C 54 °F /  12.2 °C 29.9in /  1012.9hPa OSO 4mph /  6.5km/h 5.4mph /  8.7km/h 62% 0in /  0.0mm
04:29 67.5 °F /  19.7 °C 54 °F /  12.2 °C 29.9in /  1012.9hPa OSO 4mph /  6.4km/h 6mph /  9.7km/h 62% 0in /  0.0mm
04:34 67.5 °F /  19.7 °C 54 °F /  12.2 °C 29.9in /  1012.9hPa OSO 3.6mph /  5.8km/h 6mph /  9.7km/h 62% 0in /  0.0mm
04:39 67.3 °F /  19.6 °C 53.8 °F /  12.1 °C 29.9in /  1012.8hPa OSO 3.5mph /  5.6km/h 5mph /  8km/h 62% 0in /  0.0mm
04:44 67.3 °F /  19.6 °C 53.8 °F /  12.1 °C 29.9in /  1012.8hPa OSO 2.9mph /  4.7km/h 5mph /  8km/h 62% 0in /  0.0mm
04:49 66.9 °F /  19.4 °C 54 °F /  12.2 °C 29.9in /  1012.8hPa SO 2.9mph /  4.7km/h 5mph /  8km/h 62.9% 0in /  0.0mm
04:54 66.9 °F /  19.4 °C 53.8 °F /  12.1 °C 29.9in /  1012.8hPa OSO 2.9mph /  4.7km/h 5mph /  8km/h 63% 0in /  0.0mm
04:59 66.7 °F /  19.3 °C 53.8 °F /  12.1 °C 29.9in /  1012.8hPa OSO 2.8mph /  4.5km/h 5mph /  8km/h 63% 0in /  0.0mm
05:04 66.7 °F /  19.3 °C 53.8 °F /  12.1 °C 29.9in /  1013.0hPa OSO 2.4mph /  3.9km/h 5mph /  8km/h 63% 0in /  0.0mm
05:09 66.6 °F /  19.2 °C 53.8 °F /  12.1 °C 29.9in /  1013.0hPa OSO 2.3mph /  3.7km/h 5mph /  8km/h 63.4% 0in /  0.0mm
05:14 66.6 °F /  19.2 °C 54 °F /  12.2 °C 29.9in /  1013.0hPa OSO 1.8mph /  2.9km/h 3.5mph /  5.6km/h 64% 0in /  0.0mm
05:19 66.6 °F /  19.2 °C 54.1 °F /  12.3 °C 29.9in /  1013.0hPa OSO 1.7mph /  2.8km/h 3mph /  4.8km/h 64.5% 0in /  0.0mm
05:24 66.6 °F /  19.2 °C 54.9 °F /  12.7 °C 29.9in /  1012.9hPa SSE 1.4mph /  2.2km/h 4.7mph /  7.6km/h 66.2% 0in /  0.0mm
05:29 66.2 °F /  19 °C 55 °F /  12.8 °C 29.9in /  1012.8hPa Sur 1.6mph /  2.6km/h 5.2mph /  8.4km/h 67.2% 0in /  0.0mm
05:34 65.8 °F /  18.8 °C 55 °F /  12.8 °C 29.9in /  1012.9hPa SSE 2.9mph /  4.7km/h 5.2mph /  8.4km/h 68.3% 0in /  0.0mm
05:39 65.7 °F /  18.7 °C 55 °F /  12.8 °C 29.9in /  1012.9hPa Sur 3mph /  4.8km/h 5.9mph /  9.5km/h 69% 0in /  0.0mm
05:44 65.5 °F /  18.6 °C 55 °F /  12.8 °C 29.9in /  1012.9hPa SSO 3.6mph /  5.8km/h 6mph /  9.7km/h 69% 0in /  0.0mm
05:49 65.7 °F /  18.7 °C 55 °F /  12.8 °C 29.9in /  1012.9hPa SSO 3.6mph /  5.8km/h 6mph /  9.7km/h 69% 0in /  0.0mm
05:54 65.7 °F /  18.7 °C 55.2 °F /  12.9 °C 29.9in /  1012.8hPa SSO 3.6mph /  5.8km/h 6mph /  9.7km/h 68.9% 0in /  0.0mm
05:59 65.7 °F /  18.7 °C 54.9 °F /  12.7 °C 29.9in /  1012.7hPa SO 3.5mph /  5.6km/h 5.2mph /  8.4km/h 68% 0in /  0.0mm
06:04 65.8 °F /  18.8 °C 55 °F /  12.8 °C 29.9in /  1012.7hPa SSO 3.1mph /  5km/h 5mph /  8km/h 68% 0in /  0.0mm
06:09 65.8 °F /  18.8 °C 55 °F /  12.8 °C 29.9in /  1012.7hPa SSO 3mph /  4.8km/h 4.6mph /  7.4km/h 68% 0in /  0.0mm
06:14 65.8 °F /  18.8 °C 55 °F /  12.8 °C 29.9in /  1012.7hPa SO 2.4mph /  3.9km/h 7.4mph /  11.9km/h 68% 0in /  0.0mm
06:19 65.8 °F /  18.8 °C 54.9 °F /  12.7 °C 29.9in /  1012.7hPa SO 2.6mph /  4.2km/h 8.1mph /  13km/h 67.8% 0in /  0.0mm
06:24 65.8 °F /  18.8 °C 54.7 °F /  12.6 °C 29.9in /  1012.7hPa SSO 4mph /  6.4km/h 7mph /  11.3km/h 67% 0in /  0.0mm
06:29 65.7 °F /  18.7 °C 54.5 °F /  12.5 °C 29.9in /  1012.7hPa Sur 4mph /  6.4km/h 6mph /  9.7km/h 67% 0in /  0.0mm
06:34 65.7 °F /  18.7 °C 54.3 °F /  12.4 °C 29.9in /  1012.8hPa Sur 3.6mph /  5.8km/h 6mph /  9.7km/h 67% 0in /  0.0mm
06:39 65.3 °F /  18.5 °C 54.1 °F /  12.3 °C 29.9in /  1012.8hPa Sur 3.7mph /  5.9km/h 6.9mph /  11.1km/h 67% 0in /  0.0mm
06:44 64.9 °F /  18.3 °C 54 °F /  12.2 °C 29.9in /  1012.8hPa Sur 4mph /  6.4km/h 7.4mph /  11.9km/h 67.5% 0in /  0.0mm
06:49 64.6 °F /  18.1 °C 53.8 °F /  12.1 °C 29.9in /  1012.8hPa SSO 4.2mph /  6.7km/h 7mph /  11.3km/h 68% 0in /  0.0mm
06:54 64.4 °F /  18 °C 53.8 °F /  12.1 °C 29.9in /  1012.8hPa SSO 5.2mph /  8.4km/h 7mph /  11.3km/h 68.7% 0in /  0.0mm
06:59 64.2 °F /  17.9 °C 53.6 °F /  12 °C 29.9in /  1012.8hPa SO 4.8mph /  7.8km/h 6mph /  9.7km/h 68.3% 0in /  0.0mm
07:04 64.4 °F /  18 °C 53.6 °F /  12 °C 29.9in /  1012.8hPa SO 3.1mph /  5km/h 6mph /  9.7km/h 68% 0in /  0.0mm
07:09 64.4 °F /  18 °C 53.6 °F /  12 °C 29.9in /  1012.7hPa SO 3.1mph /  5km/h 5mph /  8km/h 68% 0in /  0.0mm
07:14 64.6 °F /  18.1 °C 53.4 °F /  11.9 °C 29.9in /  1012.7hPa SSO 3.1mph /  5km/h 5.4mph /  8.7km/h 67.2% 0in /  0.0mm
07:19 64.6 °F /  18.1 °C 53.4 °F /  11.9 °C 29.9in /  1012.7hPa SSO 3.2mph /  5.2km/h 8.1mph /  13km/h 67% 0in /  0.0mm
07:24 64.8 °F /  18.2 °C 53.4 °F /  11.9 °C 29.9in /  1012.7hPa SSO 4mph /  6.4km/h 8.5mph /  13.7km/h 66.7% 0in /  0.0mm
07:29 64.8 °F /  18.2 °C 53.1 °F /  11.7 °C 29.9in /  1012.7hPa SSO 4.1mph /  6.6km/h 9mph /  14.5km/h 66% 0in /  0.0mm
07:34 64.8 °F /  18.2 °C 53.1 °F /  11.7 °C 29.9in /  1012.7hPa SSO 4.7mph /  7.6km/h 8.5mph /  13.7km/h 66% 0in /  0.0mm
07:39 64.8 °F /  18.2 °C 53.1 °F /  11.7 °C 29.9in /  1012.7hPa SO 4.8mph /  7.7km/h 9mph /  14.5km/h 66% 0in /  0.0mm
07:44 64.8 °F /  18.2 °C 53.1 °F /  11.7 °C 29.9in /  1012.7hPa SO 5.2mph /  8.4km/h 8mph /  12.9km/h 66% 0in /  0.0mm
07:49 64.8 °F /  18.2 °C 53.1 °F /  11.7 °C 29.9in /  1012.9hPa SO 5mph /  8.1km/h 6.4mph /  10.3km/h 66% 0in /  0.0mm
07:54 64.6 °F /  18.1 °C 53.1 °F /  11.7 °C 29.9in /  1012.9hPa OSO 4mph /  6.5km/h 7.6mph /  12.2km/h 66% 0in /  0.0mm
07:59 64.8 °F /  18.2 °C 52.7 °F /  11.5 °C 29.9in /  1012.9hPa OSO 4.2mph /  6.8km/h 9.7mph /  15.6km/h 65% 0in /  0.0mm
08:04 64.8 °F /  18.2 °C 52.7 °F /  11.5 °C 29.9in /  1013.0hPa SO 5.2mph /  8.4km/h 10mph /  16.1km/h 65% 0in /  0.0mm
08:09 64.8 °F /  18.2 °C 52.7 °F /  11.5 °C 29.9in /  1013.0hPa OSO 5.1mph /  8.2km/h 7mph /  11.3km/h 65.1% 0in /  0.0mm
08:14 64.8 °F /  18.2 °C 52.7 °F /  11.5 °C 29.9in /  1013.0hPa SO 4.3mph /  6.9km/h 7mph /  11.3km/h 65% 0in /  0.0mm
08:19 64.9 °F /  18.3 °C 52.9 °F /  11.6 °C 29.9in /  1013.1hPa SO 4.2mph /  6.8km/h 7mph /  11.3km/h 65% 0in /  0.0mm
08:24 64.9 °F /  18.3 °C 52.9 °F /  11.6 °C 29.9in /  1013.1hPa SO 3.6mph /  5.8km/h 6mph /  9.7km/h 65% 0in /  0.0mm
08:29 64.9 °F /  18.3 °C 52.5 °F /  11.4 °C 29.9in /  1013.1hPa SSO 3.5mph /  5.7km/h 5.2mph /  8.4km/h 64% 0in /  0.0mm
08:34 65.1 °F /  18.4 °C 53.1 °F /  11.7 °C 29.9in /  1013.1hPa SSO 3.1mph /  5km/h 5.8mph /  9.3km/h 64.9% 0in /  0.0mm
08:39 65.1 °F /  18.4 °C 53.1 °F /  11.7 °C 29.9in /  1013.1hPa SO 3.2mph /  5.1km/h 6mph /  9.7km/h 65% 0in /  0.0mm
08:44 65.3 °F /  18.5 °C 52.7 °F /  11.5 °C 29.9in /  1013.1hPa SSO 3.6mph /  5.8km/h 6.2mph /  10km/h 64% 0in /  0.0mm
08:49 65.5 °F /  18.6 °C 52.7 °F /  11.5 °C 29.9in /  1013.1hPa SO 3.7mph /  5.9km/h 6.9mph /  11.1km/h 63.5% 0in /  0.0mm
08:54 65.7 °F /  18.7 °C 52.5 °F /  11.4 °C 29.9in /  1013.1hPa SSO 4mph /  6.4km/h 7mph /  11.3km/h 62.8% 0in /  0.0mm
08:59 65.8 °F /  18.8 °C 52.5 °F /  11.4 °C 29.9in /  1013.1hPa SO 4mph /  6.5km/h 6.9mph /  11.1km/h 62% 0in /  0.0mm
09:04 66.2 °F /  19 °C 52.5 °F /  11.4 °C 29.9in /  1013.3hPa OSO 4mph /  6.5km/h 7mph /  11.3km/h 61.4% 0in /  0.0mm
09:09 66.6 °F /  19.2 °C 52.2 °F /  11.2 °C 29.9in /  1013.3hPa SO 4mph /  6.4km/h 6mph /  9.7km/h 60% 0in /  0.0mm
09:14 66.7 °F /  19.3 °C 52.2 °F /  11.2 °C 29.9in /  1013.3hPa SO 3.6mph /  5.8km/h 6.9mph /  11.1km/h 59.6% 0in /  0.0mm
09:19 66.9 °F /  19.4 °C 52.2 °F /  11.2 °C 29.9in /  1013.4hPa SO 3.7mph /  5.9km/h 7.4mph /  11.9km/h 59% 0in /  0.0mm
09:24 67.3 °F /  19.6 °C 52.3 °F /  11.3 °C 29.9in /  1013.4hPa SO 4.3mph /  6.9km/h 7.4mph /  11.9km/h 58.6% 0in /  0.0mm
09:29 67.5 °F /  19.7 °C 52.2 °F /  11.2 °C 29.9in /  1013.4hPa SO 4.3mph /  6.9km/h 7.4mph /  11.9km/h 58% 0in /  0.0mm
09:34 67.6 °F /  19.8 °C 52 °F /  11.1 °C 29.9in /  1013.5hPa SO 4.3mph /  6.9km/h 7mph /  11.3km/h 57.1% 0in /  0.0mm
09:39 68 °F /  20 °C 51.8 °F /  11 °C 29.9in /  1013.5hPa SO 4.3mph /  6.9km/h 7mph /  11.3km/h 56.4% 0in /  0.0mm
09:44 68.4 °F /  20.2 °C 51.6 °F /  10.9 °C 29.9in /  1013.5hPa SO 4.3mph /  6.9km/h 7mph /  11.3km/h 55.4% 0in /  0.0mm
09:49 68.5 °F /  20.3 °C 51.6 °F /  10.9 °C 29.9in /  1013.7hPa SO 4.2mph /  6.8km/h 6mph /  9.7km/h 54.7% 0in /  0.0mm
09:54 68.9 °F /  20.5 °C 51.6 °F /  10.9 °C 29.9in /  1013.7hPa SO 3.6mph /  5.8km/h 6mph /  9.7km/h 54% 0in /  0.0mm
09:59 69.3 °F /  20.7 °C 51.1 °F /  10.6 °C 29.9in /  1013.7hPa OSO 3.6mph /  5.8km/h 5.9mph /  9.5km/h 52.5% 0in /  0.0mm
10:04 69.6 °F /  20.9 °C 50.9 °F /  10.5 °C 29.9in /  1013.8hPa OSO 3.6mph /  5.8km/h 6mph /  9.7km/h 51.3% 0in /  0.0mm
10:09 70 °F /  21.1 °C 51.1 °F /  10.6 °C 29.9in /  1013.8hPa SSO 3.6mph /  5.8km/h 6mph /  9.7km/h 51.1% 0in /  0.0mm
10:14 70.3 °F /  21.3 °C 51.1 °F /  10.6 °C 29.9in /  1013.8hPa SSO 3.6mph /  5.8km/h 6mph /  9.7km/h 50.3% 0in /  0.0mm
10:19 70.9 °F /  21.6 °C 50.7 °F /  10.4 °C 29.9in /  1013.8hPa SSO 3.5mph /  5.7km/h 6.4mph /  10.3km/h 48.8% 0in /  0.0mm
10:24 71.2 °F /  21.8 °C 50.5 °F /  10.3 °C 29.9in /  1013.8hPa SO 3.1mph /  5km/h 7mph /  11.3km/h 48% 0in /  0.0mm
10:29 71.6 °F /  22 °C 50.4 °F /  10.2 °C 29.9in /  1013.8hPa OSO 3.1mph /  5km/h 6.2mph /  10km/h 47.2% 0in /  0.0mm
10:34 72 °F /  22.2 °C 50.4 °F /  10.2 °C 29.9in /  1013.9hPa OSO 3.1mph /  5km/h 6.2mph /  10km/h 46.3% 0in /  0.0mm
10:39 72.5 °F /  22.5 °C 50.5 °F /  10.3 °C 29.9in /  1013.9hPa OSO 3.2mph /  5.1km/h 6mph /  9.7km/h 46% 0in /  0.0mm
10:44 72.9 °F /  22.7 °C 50.9 °F /  10.5 °C 29.9in /  1013.9hPa Oeste 3.6mph /  5.8km/h 7.4mph /  11.9km/h 45.8% 0in /  0.0mm
10:49 73 °F /  22.8 °C 50.9 °F /  10.5 °C 29.9in /  1014.0hPa OSO 3.7mph /  5.9km/h 7mph /  11.3km/h 45.8% 0in /  0.0mm
10:54 73 °F /  22.8 °C 50.5 °F /  10.3 °C 29.9in /  1014.0hPa Oeste 4.3mph /  6.9km/h 8.1mph /  13km/h 45% 0in /  0.0mm
10:59 73.2 °F /  22.9 °C 50.7 °F /  10.4 °C 29.9in /  1014.0hPa OSO 4.3mph /  6.9km/h 8mph /  12.9km/h 45% 0in /  0.0mm
11:04 73.6 °F /  23.1 °C 50.9 °F /  10.5 °C 29.9in /  1014.1hPa OSO 4.3mph /  6.9km/h 7mph /  11.3km/h 45% 0in /  0.0mm
11:09 73.8 °F /  23.2 °C 51.1 °F /  10.6 °C 29.9in /  1014.1hPa Oeste 4.3mph /  6.9km/h 6.2mph /  10km/h 45% 0in /  0.0mm
11:14 73.9 °F /  23.3 °C 51.1 °F /  10.6 °C 29.9in /  1014.1hPa Oeste 4mph /  6.5km/h 6mph /  9.7km/h 44.6% 0in /  0.0mm
11:19 74.5 °F /  23.6 °C 51.1 °F /  10.6 °C 30in /  1014.2hPa Oeste 3.8mph /  6.1km/h 5.9mph /  9.5km/h 44% 0in /  0.0mm
11:24 74.8 °F /  23.8 °C 50.7 °F /  10.4 °C 30in /  1014.2hPa OSO 2.4mph /  3.9km/h 7.4mph /  11.9km/h 43% 0in /  0.0mm
11:29 75.2 °F /  24 °C 50.9 °F /  10.5 °C 30in /  1014.2hPa SO 2.7mph /  4.3km/h 7.4mph /  11.9km/h 42.8% 0in /  0.0mm
11:34 75.6 °F /  24.2 °C 50.9 °F /  10.5 °C 30in /  1014.2hPa SSO 4.3mph /  6.9km/h 7mph /  11.3km/h 42% 0in /  0.0mm
11:39 76.1 °F /  24.5 °C 51.1 °F /  10.6 °C 29.9in /  1014.1hPa SSO 4.2mph /  6.8km/h 6.2mph /  10km/h 41.6% 0in /  0.0mm
11:44 76.5 °F /  24.7 °C 51.1 °F /  10.6 °C 29.9in /  1014.1hPa SO 3.6mph /  5.8km/h 6mph /  9.7km/h 41% 0in /  0.0mm
11:49 77.2 °F /  25.1 °C 51.4 °F /  10.8 °C 29.9in /  1014.1hPa SSO 3.4mph /  5.5km/h 4.6mph /  7.4km/h 40.7% 0in /  0.0mm
11:54 77.9 °F /  25.5 °C 51.3 °F /  10.7 °C 29.9in /  1014.1hPa SSE 2mph /  3.2km/h 5.2mph /  8.4km/h 39.4% 0in /  0.0mm
11:59 78.4 °F /  25.8 °C 50.9 °F /  10.5 °C 29.9in /  1014.1hPa SE 2.1mph /  3.4km/h 5mph /  8km/h 38.3% 0in /  0.0mm
12:04 79 °F /  26.1 °C 51.1 °F /  10.6 °C 29.9in /  1014.1hPa ESE 2.9mph /  4.7km/h 6.9mph /  11.1km/h 37.8% 0in /  0.0mm
12:09 79.2 °F /  26.2 °C 51.4 °F /  10.8 °C 29.9in /  1014.1hPa SE 2.9mph /  4.7km/h 7mph /  11.3km/h 38% 0in /  0.0mm
12:14 79.7 °F /  26.5 °C 51.4 °F /  10.8 °C 29.9in /  1014.1hPa ESE 3.1mph /  5km/h 5mph /  8km/h 37.4% 0in /  0.0mm
12:19 80.2 °F /  26.8 °C 51.4 °F /  10.8 °C 29.9in /  1014.1hPa ESE 3.1mph /  5km/h 5.9mph /  9.5km/h 37% 0in /  0.0mm
12:24 80.4 °F /  26.9 °C 51.3 °F /  10.7 °C 29.9in /  1014.1hPa ESE 3.1mph /  5km/h 6mph /  9.7km/h 36.3% 0in /  0.0mm
12:29 80.6 °F /  27 °C 52 °F /  11.1 °C 29.9in /  1014.1hPa NE 3.1mph /  5km/h 6.9mph /  11.1km/h 37% 0in /  0.0mm
12:34 80.6 °F /  27 °C 51.8 °F /  11 °C 29.9in /  1014.1hPa ENE 3.1mph /  5km/h 8.5mph /  13.7km/h 36.8% 0in /  0.0mm
12:39 80.2 °F /  26.8 °C 51.6 °F /  10.9 °C 29.9in /  1014.1hPa NE 3.5mph /  5.6km/h 9.2mph /  14.8km/h 37.1% 0in /  0.0mm
12:44 80.2 °F /  26.8 °C 52.2 °F /  11.2 °C 29.9in /  1014.1hPa NE 5.4mph /  8.7km/h 9.2mph /  14.8km/h 37.9% 0in /  0.0mm
12:49 80.4 °F /  26.9 °C 52.2 °F /  11.2 °C 30in /  1014.2hPa NE 5.2mph /  8.4km/h 8mph /  12.9km/h 37.5% 0in /  0.0mm
12:54 80.8 °F /  27.1 °C 52 °F /  11.1 °C 30in /  1014.2hPa NE 4mph /  6.5km/h 8.5mph /  13.7km/h 36.9% 0in /  0.0mm
12:59 80.6 °F /  27 °C 51.8 °F /  11 °C 30in /  1014.2hPa NE 4.2mph /  6.8km/h 9.2mph /  14.8km/h 36.9% 0in /  0.0mm
13:04 80.8 °F /  27.1 °C 52.2 °F /  11.2 °C 30in /  1014.3hPa NE 5.2mph /  8.4km/h 9mph /  14.5km/h 37% 0in /  0.0mm
13:09 81 °F /  27.2 °C 52.3 °F /  11.3 °C 30in /  1014.3hPa NE 5mph /  8.1km/h 9.2mph /  14.8km/h 37.1% 0in /  0.0mm
13:14 81.1 °F /  27.3 °C 52.3 °F /  11.3 °C 30in /  1014.3hPa NE 4.3mph /  6.9km/h 9.2mph /  14.8km/h 37% 0in /  0.0mm
13:19 81.3 °F /  27.4 °C 52.5 °F /  11.4 °C 30in /  1014.3hPa NE 4.3mph /  7km/h 8.5mph /  13.7km/h 37% 0in /  0.0mm
13:24 81.1 °F /  27.3 °C 51.8 °F /  11 °C 30in /  1014.2hPa NE 4.7mph /  7.6km/h 10.7mph /  17.2km/h 36.1% 0in /  0.0mm
13:29 81.1 °F /  27.3 °C 52.2 °F /  11.2 °C 30in /  1014.2hPa NE 5mph /  8km/h 11mph /  17.7km/h 36.8% 0in /  0.0mm
13:34 81.1 °F /  27.3 °C 52.2 °F /  11.2 °C 30in /  1014.2hPa NE 6.4mph /  10.3km/h 11.5mph /  18.5km/h 36.7% 0in /  0.0mm
13:39 81.3 °F /  27.4 °C 52.3 °F /  11.3 °C 29.9in /  1014.0hPa NE 6.2mph /  10km/h 12mph /  19.3km/h 36.6% 0in /  0.0mm
13:44 81.9 °F /  27.7 °C 53.1 °F /  11.7 °C 29.9in /  1013.9hPa NE 5.4mph /  8.7km/h 11.8mph /  19km/h 37.1% 0in /  0.0mm
13:49 82 °F /  27.8 °C 53.2 °F /  11.8 °C 29.9in /  1013.9hPa NE 5.5mph /  8.8km/h 12mph /  19.3km/h 37% 0in /  0.0mm
13:54 82 °F /  27.8 °C 53.8 °F /  12.1 °C 29.9in /  1013.8hPa NNE 5.9mph /  9.5km/h 11.5mph /  18.5km/h 37.7% 0in /  0.0mm
13:59 82.2 °F /  27.9 °C 54.1 °F /  12.3 °C 29.9in /  1013.8hPa NE 6mph /  9.6km/h 12mph /  19.3km/h 38% 0in /  0.0mm
14:04 82.2 °F /  27.9 °C 54.1 °F /  12.3 °C 29.9in /  1013.8hPa NE 6.2mph /  10km/h 12mph /  19.3km/h 38% 0in /  0.0mm
14:09 82.6 °F /  28.1 °C 54.9 °F /  12.7 °C 29.9in /  1013.6hPa NNE 6.2mph /  10km/h 12mph /  19.3km/h 38.8% 0in /  0.0mm
14:14 82.8 °F /  28.2 °C 55.6 °F /  13.1 °C 29.9in /  1013.6hPa NNE 6.2mph /  10km/h 12.7mph /  20.4km/h 39.4% 0in /  0.0mm
14:19 82.8 °F /  28.2 °C 55.2 °F /  12.9 °C 29.9in /  1013.6hPa NNE 6.3mph /  10.2km/h 13mph /  20.9km/h 39% 0in /  0.0mm
14:24 82.8 °F /  28.2 °C 55.6 °F /  13.1 °C 29.9in /  1013.4hPa NE 6.9mph /  11.1km/h 13mph /  20.9km/h 39.4% 0in /  0.0mm
14:29 82.9 °F /  28.3 °C 56.1 °F /  13.4 °C 29.9in /  1013.4hPa NE 6.8mph /  10.9km/h 12mph /  19.3km/h 40% 0in /  0.0mm
14:34 83.1 °F /  28.4 °C 56.5 °F /  13.6 °C 29.9in /  1013.4hPa NE 6.2mph /  10km/h 14mph /  22.5km/h 40.3% 0in /  0.0mm
14:39 83.1 °F /  28.4 °C 56.8 °F /  13.8 °C 29.9in /  1013.1hPa NE 6.4mph /  10.3km/h 14mph /  22.5km/h 40.7% 0in /  0.0mm
14:44 82.9 °F /  28.3 °C 56.7 °F /  13.7 °C 29.9in /  1013.1hPa NE 7.4mph /  11.9km/h 13mph /  20.9km/h 40.7% 0in /  0.0mm
14:49 83.1 °F /  28.4 °C 57 °F /  13.9 °C 29.9in /  1013.1hPa NE 7.5mph /  12km/h 12.7mph /  20.4km/h 41.1% 0in /  0.0mm
14:54 83.3 °F /  28.5 °C 57.2 °F /  14 °C 29.9in /  1013.0hPa NE 7.6mph /  12.2km/h 13mph /  20.9km/h 41.2% 0in /  0.0mm
14:59 83.5 °F /  28.6 °C 57.4 °F /  14.1 °C 29.9in /  1013.0hPa NE 7.3mph /  11.8km/h 12mph /  19.3km/h 41% 0in /  0.0mm
15:04 83.7 °F /  28.7 °C 57.4 °F /  14.1 °C 29.9in /  1013.0hPa NE 6.2mph /  10km/h 11.8mph /  19km/h 40.9% 0in /  0.0mm
15:09 83.8 °F /  28.8 °C 57.9 °F /  14.4 °C 29.9in /  1012.8hPa NE 6.4mph /  10.3km/h 12mph /  19.3km/h 41.3% 0in /  0.0mm
15:14 83.8 °F /  28.8 °C 57.6 °F /  14.2 °C 29.9in /  1012.8hPa NE 7.4mph /  11.9km/h 15mph /  24.1km/h 41% 0in /  0.0mm
15:19 83.8 °F /  28.8 °C 58.1 °F /  14.5 °C 29.9in /  1012.8hPa NE 7.4mph /  11.9km/h 15mph /  24.1km/h 41.6% 0in /  0.0mm
15:24 84 °F /  28.9 °C 57.7 °F /  14.3 °C 29.9in /  1012.7hPa NE 7.4mph /  11.9km/h 15mph /  24.1km/h 40.9% 0in /  0.0mm
15:29 84 °F /  28.9 °C 56.8 °F /  13.8 °C 29.9in /  1012.7hPa NE 7.6mph /  12.2km/h 15mph /  24.1km/h 39.6% 0in /  0.0mm
15:34 84 °F /  28.9 °C 56.1 °F /  13.4 °C 29.9in /  1012.7hPa NE 8.5mph /  13.7km/h 15mph /  24.1km/h 38.6% 0in /  0.0mm
15:39 84 °F /  28.9 °C 56.1 °F /  13.4 °C 29.9in /  1012.7hPa NE 8.6mph /  13.8km/h 16.3mph /  26.2km/h 38.7% 0in /  0.0mm
15:44 84 °F /  28.9 °C 56.3 °F /  13.5 °C 29.9in /  1012.7hPa NE 9.2mph /  14.8km/h 16mph /  25.7km/h 38.8% 0in /  0.0mm
15:49 84 °F /  28.9 °C 55.9 °F /  13.3 °C 29.9in /  1012.7hPa NE 9.2mph /  14.8km/h 16.1mph /  25.9km/h 38.3% 0in /  0.0mm
15:54 84 °F /  28.9 °C 56.5 °F /  13.6 °C 29.9in /  1012.7hPa NE 9.2mph /  14.8km/h 16mph /  25.7km/h 39% 0in /  0.0mm
15:59 83.8 °F /  28.8 °C 56.5 °F /  13.6 °C 29.9in /  1012.7hPa NE 9.4mph /  15.1km/h 17.5mph /  28.2km/h 39.3% 0in /  0.0mm
16:04 83.7 °F /  28.7 °C 56.7 °F /  13.7 °C 29.9in /  1012.7hPa NE 10mph /  16.1km/h 17mph /  27.4km/h 39.8% 0in /  0.0mm
16:09 83.7 °F /  28.7 °C 56.5 °F /  13.6 °C 29.9in /  1012.6hPa NE 9.9mph /  16km/h 16.1mph /  25.9km/h 39.7% 0in /  0.0mm
16:14 83.3 °F /  28.5 °C 56.3 °F /  13.5 °C 29.9in /  1012.6hPa NE 9.7mph /  15.6km/h 18.4mph /  29.6km/h 39.9% 0in /  0.0mm
16:19 83.1 °F /  28.4 °C 56.3 °F /  13.5 °C 29.9in /  1012.6hPa NE 9.9mph /  15.9km/h 18mph /  29km/h 40% 0in /  0.0mm
16:24 83.5 °F /  28.6 °C 56.1 °F /  13.4 °C 29.9in /  1012.5hPa NE 10.7mph /  17.2km/h 14mph /  22.5km/h 39.3% 0in /  0.0mm
16:29 83.3 °F /  28.5 °C 56.1 °F /  13.4 °C 29.9in /  1012.5hPa NE 10.6mph /  17km/h 17.5mph /  28.2km/h 39.4% 0in /  0.0mm
16:34 83.1 °F /  28.4 °C 56.3 °F /  13.5 °C 29.9in /  1012.5hPa NE 10mph /  16.1km/h 17mph /  27.4km/h 40% 0in /  0.0mm
16:39 82.9 °F /  28.3 °C 56.5 °F /  13.6 °C 29.9in /  1012.4hPa NE 10mph /  16.1km/h 16.3mph /  26.2km/h 40.6% 0in /  0.0mm
16:44 82.8 °F /  28.2 °C 56.7 °F /  13.7 °C 29.9in /  1012.4hPa NE 10.2mph /  16.4km/h 16.3mph /  26.2km/h 41.1% 0in /  0.0mm
16:49 82.8 °F /  28.2 °C 57.4 °F /  14.1 °C 29.9in /  1012.5hPa NE 10.3mph /  16.5km/h 18.4mph /  29.6km/h 42.1% 0in /  0.0mm
16:54 82.4 °F /  28 °C 57.7 °F /  14.3 °C 29.9in /  1012.5hPa NE 10.7mph /  17.2km/h 18.4mph /  29.6km/h 42.9% 0in /  0.0mm
16:59 82.2 °F /  27.9 °C 58.3 °F /  14.6 °C 29.9in /  1012.5hPa NE 10.8mph /  17.4km/h 18.5mph /  29.8km/h 44.4% 0in /  0.0mm
17:04 82 °F /  27.8 °C 59 °F /  15 °C 29.9in /  1012.5hPa NE 11.4mph /  18.4km/h 19mph /  30.6km/h 45.7% 0in /  0.0mm
17:09 82 °F /  27.8 °C 59 °F /  15 °C 29.9in /  1012.4hPa NE 11.2mph /  18.1km/h 18.4mph /  29.6km/h 45.7% 0in /  0.0mm
17:14 81.7 °F /  27.6 °C 58.5 °F /  14.7 °C 29.9in /  1012.4hPa NE 10.2mph /  16.4km/h 19.2mph /  30.9km/h 45.2% 0in /  0.0mm
17:19 81.5 °F /  27.5 °C 57.7 °F /  14.3 °C 29.9in /  1012.5hPa NE 10.2mph /  16.4km/h 20mph /  32.2km/h 44.5% 0in /  0.0mm
17:24 81.3 °F /  27.4 °C 57.4 °F /  14.1 °C 29.9in /  1012.5hPa NE 10mph /  16.1km/h 20mph /  32.2km/h 44% 0in /  0.0mm
17:29 81.1 °F /  27.3 °C 57.2 °F /  14 °C 29.9in /  1012.5hPa NE 10mph /  16.1km/h 16mph /  25.7km/h 44.1% 0in /  0.0mm
17:34 81.1 °F /  27.3 °C 57.6 °F /  14.2 °C 29.9in /  1012.6hPa NE 10.2mph /  16.4km/h 17.5mph /  28.2km/h 44.8% 0in /  0.0mm
17:39 80.8 °F /  27.1 °C 57.9 °F /  14.4 °C 29.9in /  1012.6hPa NE 10.2mph /  16.4km/h 17mph /  27.4km/h 45.6% 0in /  0.0mm
17:44 80.6 °F /  27 °C 57.7 °F /  14.3 °C 29.9in /  1012.6hPa NE 10mph /  16.1km/h 16.1mph /  25.9km/h 45.7% 0in /  0.0mm
17:49 80.4 °F /  26.9 °C 57.6 °F /  14.2 °C 29.9in /  1012.7hPa NE 9.9mph /  16km/h 17.3mph /  27.8km/h 45.8% 0in /  0.0mm
17:54 80.2 °F /  26.8 °C 57.6 °F /  14.2 °C 29.9in /  1012.7hPa NE 9.7mph /  15.6km/h 18.5mph /  29.8km/h 46% 0in /  0.0mm
17:59 80.1 °F /  26.7 °C 57.6 °F /  14.2 °C 29.9in /  1012.7hPa NE 9.7mph /  15.6km/h 19mph /  30.6km/h 46.3% 0in /  0.0mm
18:04 80.1 °F /  26.7 °C 57.9 °F /  14.4 °C 29.9in /  1012.7hPa NE 9.7mph /  15.6km/h 15mph /  24.1km/h 47% 0in /  0.0mm
18:09 79.9 °F /  26.6 °C 58.1 °F /  14.5 °C 29.9in /  1012.7hPa NE 9.7mph /  15.6km/h 15mph /  24.1km/h 47.7% 0in /  0.0mm
18:14 79.5 °F /  26.4 °C 58.8 °F /  14.9 °C 29.9in /  1012.7hPa NE 9.7mph /  15.6km/h 15mph /  24.1km/h 49% 0in /  0.0mm
18:19 79.3 °F /  26.3 °C 58.6 °F /  14.8 °C 29.9in /  1012.7hPa NE 9.5mph /  15.3km/h 14mph /  22.5km/h 49% 0in /  0.0mm
18:24 79.2 °F /  26.2 °C 58.8 °F /  14.9 °C 29.9in /  1012.7hPa NE 8.7mph /  14km/h 16.1mph /  25.9km/h 49.8% 0in /  0.0mm
18:29 79 °F /  26.1 °C 58.8 °F /  14.9 °C 29.9in /  1012.7hPa NE 8.8mph /  14.2km/h 16mph /  25.7km/h 50% 0in /  0.0mm
18:34 78.6 °F /  25.9 °C 58.5 °F /  14.7 °C 29.9in /  1012.8hPa NE 9.7mph /  15.6km/h 16.1mph /  25.9km/h 50.1% 0in /  0.0mm
18:39 78.6 °F /  25.9 °C 59 °F /  15 °C 29.9in /  1012.8hPa NE 9.5mph /  15.3km/h 15mph /  24.1km/h 51% 0in /  0.0mm
18:44 78.4 °F /  25.8 °C 58.8 °F /  14.9 °C 29.9in /  1012.8hPa NE 8.7mph /  14km/h 15mph /  24.1km/h 51% 0in /  0.0mm
18:49 78.3 °F /  25.7 °C 58.5 °F /  14.7 °C 29.9in /  1013.0hPa NE 8.7mph /  14km/h 15mph /  24.1km/h 50.9% 0in /  0.0mm
18:54 78.1 °F /  25.6 °C 58.5 °F /  14.7 °C 29.9in /  1013.0hPa NE 8.7mph /  14km/h 14mph /  22.5km/h 51% 0in /  0.0mm
18:59 77.9 °F /  25.5 °C 58.5 °F /  14.7 °C 29.9in /  1013.0hPa NE 8.4mph /  13.6km/h 13.5mph /  21.7km/h 51.5% 0in /  0.0mm
19:04 77.5 °F /  25.3 °C 58.8 °F /  14.9 °C 29.9in /  1013.1hPa NE 7.4mph /  11.9km/h 14mph /  22.5km/h 52.5% 0in /  0.0mm
19:09 77.4 °F /  25.2 °C 59.2 °F /  15.1 °C 29.9in /  1013.1hPa NE 7.5mph /  12km/h 13mph /  20.9km/h 53.6% 0in /  0.0mm
19:14 77.2 °F /  25.1 °C 59.7 °F /  15.4 °C 29.9in /  1013.1hPa NE 7.6mph /  12.2km/h 13.8mph /  22.2km/h 55.1% 0in /  0.0mm
19:19 76.6 °F /  24.8 °C 60.1 °F /  15.6 °C 29.9in /  1013.2hPa NE 7.8mph /  12.5km/h 14mph /  22.5km/h 56.6% 0in /  0.0mm
19:24 76.5 °F /  24.7 °C 60.6 °F /  15.9 °C 29.9in /  1013.2hPa NE 8.5mph /  13.7km/h 14mph /  22.5km/h 57.8% 0in /  0.0mm
19:29 76.3 °F /  24.6 °C 61 °F /  16.1 °C 29.9in /  1013.2hPa NE 8.4mph /  13.6km/h 14mph /  22.5km/h 59% 0in /  0.0mm
19:34 76.1 °F /  24.5 °C 61 °F /  16.1 °C 29.9in /  1013.4hPa NE 8.1mph /  13km/h 13.8mph /  22.2km/h 59.9% 0in /  0.0mm
19:39 75.7 °F /  24.3 °C 61.3 °F /  16.3 °C 29.9in /  1013.4hPa NE 8.1mph /  13.1km/h 14mph /  22.5km/h 61% 0in /  0.0mm
19:44 75.7 °F /  24.3 °C 61.7 °F /  16.5 °C 29.9in /  1013.4hPa NE 8.5mph /  13.7km/h 13mph /  20.9km/h 62% 0in /  0.0mm
19:49 75.6 °F /  24.2 °C 61.9 °F /  16.6 °C 29.9in /  1013.6hPa NE 8.4mph /  13.5km/h 15.2mph /  24.5km/h 62.7% 0in /  0.0mm
19:54 75.4 °F /  24.1 °C 62.4 °F /  16.9 °C 29.9in /  1013.6hPa NE 7.6mph /  12.2km/h 15mph /  24.1km/h 63.9% 0in /  0.0mm
19:59 75.2 °F /  24 °C 62.4 °F /  16.9 °C 29.9in /  1013.6hPa NE 7.6mph /  12.2km/h 13mph /  20.9km/h 64.5% 0in /  0.0mm
20:04 74.8 °F /  23.8 °C 62.2 °F /  16.8 °C 29.9in /  1013.6hPa NE 7.4mph /  11.9km/h 12.7mph /  20.4km/h 64.6% 0in /  0.0mm
20:09 74.8 °F /  23.8 °C 61.5 °F /  16.4 °C 29.9in /  1013.6hPa NE 7.2mph /  11.6km/h 13mph /  20.9km/h 63.5% 0in /  0.0mm
20:14 74.7 °F /  23.7 °C 61.2 °F /  16.2 °C 29.9in /  1013.6hPa NE 6.4mph /  10.3km/h 12mph /  19.3km/h 63% 0in /  0.0mm
20:19 74.5 °F /  23.6 °C 61.2 °F /  16.2 °C 29.9in /  1013.7hPa NE 6.4mph /  10.3km/h 10mph /  16.1km/h 63% 0in /  0.0mm
20:24 74.5 °F /  23.6 °C 61.3 °F /  16.3 °C 29.9in /  1013.7hPa NE 6.2mph /  10km/h 12.7mph /  20.4km/h 63.7% 0in /  0.0mm
20:29 74.3 °F /  23.5 °C 61.7 °F /  16.5 °C 29.9in /  1013.7hPa NE 6.2mph /  10km/h 13mph /  20.9km/h 64.7% 0in /  0.0mm
20:34 74.1 °F /  23.4 °C 61.9 °F /  16.6 °C 29.9in /  1013.8hPa NE 6.2mph /  10km/h 10.4mph /  16.7km/h 65.8% 0in /  0.0mm
20:39 73.9 °F /  23.3 °C 62.1 °F /  16.7 °C 29.9in /  1013.8hPa NE 6.2mph /  10km/h 10.4mph /  16.7km/h 66.7% 0in /  0.0mm
20:44 73.8 °F /  23.2 °C 62.1 °F /  16.7 °C 29.9in /  1013.8hPa NE 6.4mph /  10.3km/h 10.4mph /  16.7km/h 67% 0in /  0.0mm
20:49 73.6 °F /  23.1 °C 62.2 °F /  16.8 °C 29.9in /  1013.9hPa NE 6.3mph /  10.1km/h 10mph /  16.1km/h 67.7% 0in /  0.0mm
20:54 73.4 °F /  23 °C 62.2 °F /  16.8 °C 29.9in /  1013.9hPa NE 5.4mph /  8.7km/h 9.2mph /  14.8km/h 68.3% 0in /  0.0mm
20:59 73.4 °F /  23 °C 62.6 °F /  17 °C 29.9in /  1013.9hPa NE 5.4mph /  8.7km/h 10.4mph /  16.7km/h 69% 0in /  0.0mm
21:04 73.4 °F /  23 °C 62.6 °F /  17 °C 29.9in /  1014.0hPa NE 5.4mph /  8.7km/h 10mph /  16.1km/h 69% 0in /  0.0mm
21:09 73.6 °F /  23.1 °C 62.8 °F /  17.1 °C 29.9in /  1014.0hPa NE 5.3mph /  8.5km/h 9mph /  14.5km/h 69% 0in /  0.0mm
21:14 73.4 °F /  23 °C 63 °F /  17.2 °C 29.9in /  1014.0hPa NE 4.7mph /  7.6km/h 7mph /  11.3km/h 70% 0in /  0.0mm
21:19 73.4 °F /  23 °C 63.1 °F /  17.3 °C 30in /  1014.2hPa NE 4.7mph /  7.6km/h 8.1mph /  13km/h 70.4% 0in /  0.0mm
21:24 73 °F /  22.8 °C 63.1 °F /  17.3 °C 30in /  1014.2hPa NE 4.7mph /  7.6km/h 8.1mph /  13km/h 71% 0in /  0.0mm
21:29 73 °F /  22.8 °C 63.3 °F /  17.4 °C 30in /  1014.2hPa ENE 4.7mph /  7.5km/h 8.1mph /  13km/h 71.6% 0in /  0.0mm
21:34 72.9 °F /  22.7 °C 63.1 °F /  17.3 °C 30in /  1014.3hPa ENE 4.3mph /  6.9km/h 8mph /  12.9km/h 71.7% 0in /  0.0mm
21:39 72.7 °F /  22.6 °C 63.1 °F /  17.3 °C 30in /  1014.3hPa NE 4.2mph /  6.7km/h 6.4mph /  10.3km/h 72% 0in /  0.0mm
21:44 72.5 °F /  22.5 °C 63 °F /  17.2 °C 30in /  1014.3hPa NE 3.1mph /  5km/h 7.4mph /  11.9km/h 72% 0in /  0.0mm
21:49 72.3 °F /  22.4 °C 62.8 °F /  17.1 °C 30in /  1014.5hPa NE 3.2mph /  5.2km/h 7mph /  11.3km/h 72% 0in /  0.0mm
21:54 72.1 °F /  22.3 °C 63 °F /  17.2 °C 30in /  1014.5hPa NE 4mph /  6.4km/h 6.2mph /  10km/h 72.8% 0in /  0.0mm
21:59 72.1 °F /  22.3 °C 63 °F /  17.2 °C 30in /  1014.5hPa NE 4mph /  6.5km/h 6.2mph /  10km/h 73% 0in /  0.0mm
22:04 72 °F /  22.2 °C 62.8 °F /  17.1 °C 30in /  1014.6hPa NE 4mph /  6.5km/h 6.2mph /  10km/h 73.1% 0in /  0.0mm
22:09 71.8 °F /  22.1 °C 63 °F /  17.2 °C 30in /  1014.6hPa NE 4mph /  6.5km/h 6.9mph /  11.1km/h 74% 0in /  0.0mm
22:14 71.8 °F /  22.1 °C 63 °F /  17.2 °C 30in /  1014.6hPa NE 4mph /  6.5km/h 7mph /  11.3km/h 74.1% 0in /  0.0mm
22:19 71.8 °F /  22.1 °C 63 °F /  17.2 °C 30in /  1014.7hPa NE 4mph /  6.4km/h 6.2mph /  10km/h 74% 0in /  0.0mm
22:24 71.4 °F /  21.9 °C 63 °F /  17.2 °C 30in /  1014.7hPa NE 3.6mph /  5.8km/h 6mph /  9.7km/h 74.6% 0in /  0.0mm
22:29 71.4 °F /  21.9 °C 63.1 °F /  17.3 °C 30in /  1014.7hPa ENE 3.4mph /  5.5km/h 5mph /  8km/h 75% 0in /  0.0mm
22:34 71.2 °F /  21.8 °C 63 °F /  17.2 °C 30in /  1014.8hPa Este 2.4mph /  3.9km/h 5mph /  8km/h 75% 0in /  0.0mm
22:39 71.2 °F /  21.8 °C 63 °F /  17.2 °C 30in /  1014.8hPa NNE 2.3mph /  3.7km/h 4mph /  6.4km/h 75% 0in /  0.0mm
22:44 71.1 °F /  21.7 °C 62.8 °F /  17.1 °C 30in /  1014.8hPa North 1.8mph /  2.9km/h 3.6mph /  5.8km/h 75% 0in /  0.0mm
22:49 70.9 °F /  21.6 °C 62.6 °F /  17 °C 30in /  1014.8hPa North 1.9mph /  3km/h 4mph /  6.4km/h 75% 0in /  0.0mm
22:54 70.7 °F /  21.5 °C 62.4 °F /  16.9 °C 30in /  1014.8hPa NNE 2mph /  3.2km/h 4mph /  6.4km/h 75.4% 0in /  0.0mm
22:59 70.5 °F /  21.4 °C 62.6 °F /  17 °C 30in /  1014.8hPa NNE 1.9mph /  3km/h 2.4mph /  3.9km/h 76% 0in /  0.0mm
23:04 70.5 °F /  21.4 °C 62.6 °F /  17 °C 30in /  1015.0hPa NNE 1.4mph /  2.2km/h 2.4mph /  3.9km/h 76% 0in /  0.0mm
23:09 70.3 °F /  21.3 °C 62.6 °F /  17 °C 30in /  1015.0hPa NNE 1.4mph /  2.2km/h 3.6mph /  5.8km/h 76.6% 0in /  0.0mm
23:14 70.3 °F /  21.3 °C 62.8 °F /  17.1 °C 30in /  1015.0hPa NNE 1.4mph /  2.2km/h 4.6mph /  7.4km/h 77% 0in /  0.0mm
23:19 70.2 °F /  21.2 °C 62.6 °F /  17 °C 30in /  1015.0hPa NNE 1.5mph /  2.4km/h 5mph /  8km/h 77% 0in /  0.0mm
23:24 70.2 °F /  21.2 °C 62.6 °F /  17 °C 30in /  1015.0hPa NE 2mph /  3.2km/h 4.7mph /  7.6km/h 77% 0in /  0.0mm
23:29 70 °F /  21.1 °C 62.4 °F /  16.9 °C 30in /  1015.0hPa NE 2.1mph /  3.3km/h 5mph /  8km/h 77% 0in /  0.0mm
23:34 70 °F /  21.1 °C 62.4 °F /  16.9 °C 30in /  1015.1hPa NE 2.4mph /  3.9km/h 5mph /  8km/h 77% 0in /  0.0mm
23:39 70 °F /  21.1 °C 62.4 °F /  16.9 °C 30in /  1015.1hPa NE 2.4mph /  3.8km/h 5mph /  8km/h 77% 0in /  0.0mm
23:44 70 °F /  21.1 °C 62.4 °F /  16.9 °C 30in /  1015.1hPa NE 2mph /  3.2km/h 3.5mph /  5.6km/h 77% 0in /  0.0mm
23:49 70 °F /  21.1 °C 62.4 °F /  16.9 °C 30in /  1015.1hPa NE 2mph /  3.2km/h 3mph /  4.8km/h 77% 0in /  0.0mm
23:54 69.8 °F /  21 °C 62.1 °F /  16.7 °C 30in /  1015.1hPa NE 1.8mph /  2.9km/h 3mph /  4.8km/h 76.4% 0in /  0.0mm
23:59 69.6 °F /  20.9 °C 61.3 °F /  16.3 °C 30in /  1015.1hPa NE 1.7mph /  2.8km/h 3mph /  4.8km/h 75.2% 0in /  0.0mm
Murcia-Puente Tocinos, Espa?a
Compliments of Weather Underground - 3.25 mb

La estación de MeteoMurcia.com, publica sus datos en los siguientes proyectos:

Weather Underground PWS IMURCIAP2 Meteoclimatic www.awekas.at

W3Counter
Web Analytics